Time;durP1;ratioP1;P1;durP2;ratioP2;P2;SDS_P1;SDS_P2;PMS_P1;PMS_P2;Temp;Humidity;BMP_temperature;BMP_pressure;BME280_temperature;BME280_humidity;BME280_pressure;Samples;Min_cycle;Max_cycle;Signal;HPM_P1;HPM_P2
2023/08/20 00:01:53;;;;;;;9.30;6.40;;;;;;;27.48;38.56;100778.08;104300;1287;69208;-86
2023/08/20 00:04:18;;;;;;;6.70;5.90;;;;;;;27.47;38.64;100780.81;104424;1290;69087;-86
2023/08/20 00:06:46;;;;;;;7.30;6.10;;;;;;;27.48;38.71;100781.17;104144;1288;66570;-86
2023/08/20 00:09:17;;;;;;;6.60;5.90;;;;;;;27.46;38.65;100786.05;104185;1286;69103;-92
2023/08/20 00:11:43;;;;;;;6.90;6.00;;;;;;;27.46;38.76;100778.91;104100;1288;73557;-86
2023/08/20 00:14:15;;;;;;;9.00;6.40;;;;;;;27.46;38.74;100781.91;104156;1286;69202;-86
2023/08/20 00:16:41;;;;;;;7.10;6.20;;;;;;;27.46;38.69;100773.64;104145;1286;70463;-86
2023/08/20 00:19:07;;;;;;;7.50;6.10;;;;;;;27.45;38.73;100768.86;104211;1286;69247;-86
2023/08/20 00:21:32;;;;;;;7.30;6.40;;;;;;;27.45;38.83;100768.70;104107;1288;69158;-87
2023/08/20 00:23:58;;;;;;;8.30;6.30;;;;;;;27.45;38.84;100764.46;103957;1286;70422;-86
2023/08/20 00:26:24;;;;;;;6.70;5.90;;;;;;;27.44;38.88;100762.52;104032;1287;69196;-86
2023/08/20 00:28:49;;;;;;;6.90;6.20;;;;;;;27.45;38.85;100762.30;104188;1287;69318;-86
2023/08/20 00:31:15;;;;;;;7.20;6.00;;;;;;;27.44;38.99;100764.38;104143;1289;69382;-86
2023/08/20 00:33:40;;;;;;;8.90;6.40;;;;;;;27.43;38.92;100763.88;104205;1287;69280;-86
2023/08/20 00:36:15;;;;;;;7.50;5.80;;;;;;;27.43;38.96;100764.86;104196;1289;69305;-92
2023/08/20 00:38:40;;;;;;;11.40;6.10;;;;;;;27.43;39.04;100768.23;104103;1286;69162;-86
2023/08/20 00:41:06;;;;;;;9.20;6.60;;;;;;;27.43;39.07;100765.48;104281;1286;69256;-86
2023/08/20 00:43:31;;;;;;;7.60;6.10;;;;;;;27.43;39.05;100768.06;104485;1287;69224;-86
2023/08/20 00:45:58;;;;;;;7.30;6.40;;;;;;;27.42;39.22;100761.77;104199;1287;69296;-87
2023/08/20 00:48:24;;;;;;;8.30;6.00;;;;;;;27.42;39.22;100758.02;104191;1286;69714;-87
2023/08/20 00:50:49;;;;;;;7.30;6.20;;;;;;;27.42;39.29;100756.58;103977;1286;69822;-86
2023/08/20 00:53:15;;;;;;;7.00;5.90;;;;;;;27.41;39.32;100754.57;104182;1290;69130;-86
2023/08/20 00:55:42;;;;;;;8.80;6.20;;;;;;;27.41;39.26;100756.70;104251;1286;69192;-86
2023/08/20 00:58:08;;;;;;;6.80;6.20;;;;;;;27.41;39.26;100752.52;104382;1288;69240;-86
2023/08/20 01:00:33;;;;;;;8.50;6.40;;;;;;;27.41;39.41;100752.98;104166;1291;69735;-86
2023/08/20 01:03:07;;;;;;;8.50;5.70;;;;;;;27.41;39.45;100758.20;104199;1288;69374;-92
2023/08/20 01:05:35;;;;;;;6.30;5.70;;;;;;;27.40;39.49;100757.44;104087;1287;70407;-87
2023/08/20 01:08:24;;;;;;;6.60;6.00;;;;;;;27.40;39.53;100757.44;104206;1288;74742;-86
2023/08/20 01:10:58;;;;;;;10.20;7.00;;;;;;;27.40;39.50;100759.98;104169;1286;69168;-87
2023/08/20 01:13:24;;;;;;;7.40;6.10;;;;;;;27.39;39.51;100762.16;104215;1286;69194;-86
2023/08/20 01:15:49;;;;;;;11.50;6.40;;;;;;;27.40;39.62;100764.06;104172;1286;69274;-86
2023/08/20 01:18:15;;;;;;;7.90;5.90;;;;;;;27.40;39.54;100762.92;104217;1286;69693;-87
2023/08/20 01:20:43;;;;;;;10.90;5.90;;;;;;;27.39;39.52;100766.44;104118;1286;69484;-86
2023/08/20 01:23:45;;;;;;;10.10;5.90;;;;;;;27.39;39.60;100765.38;104272;1285;69185;-86
2023/08/20 01:26:22;;;;;;;7.40;6.00;;;;;;;27.38;39.68;100768.24;104134;1286;69213;-86
2023/08/20 01:28:48;;;;;;;8.30;5.70;;;;;;;27.38;39.63;100768.29;104171;1285;69273;-86
2023/08/20 01:31:13;;;;;;;8.80;6.40;;;;;;;27.38;39.61;100763.59;104183;1290;69234;-87
2023/08/20 01:33:39;;;;;;;7.20;5.80;;;;;;;27.38;39.71;100768.55;103959;1290;69319;-86
2023/08/20 01:36:09;;;;;;;9.50;6.00;;;;;;;27.38;39.68;100770.92;104270;1285;69283;-86
2023/08/20 01:38:35;;;;;;;;;;;;;;;27.37;39.79;100771.30;104151;1285;69275;-86
2023/08/20 01:41:00;;;;;;;8.10;6.20;;;;;;;27.35;39.74;100771.04;104268;1284;67321;-86
2023/08/20 01:43:26;;;;;;;7.50;6.20;;;;;;;27.35;39.77;100768.52;104302;1287;69708;-86
2023/08/20 01:45:51;;;;;;;8.40;5.90;;;;;;;27.35;39.72;100770.78;104242;1285;69292;-86
2023/08/20 01:48:17;;;;;;;7.80;6.20;;;;;;;27.35;39.84;100770.06;104279;1285;69976;-86
2023/08/20 01:53:20;;;;;;;8.60;5.90;;;;;;;27.35;39.89;100765.10;104558;1283;69268;-86
2023/08/20 01:55:45;;;;;;;9.10;6.20;;;;;;;27.35;39.93;100766.34;104481;1283;69244;-86
2023/08/20 01:58:11;;;;;;;9.00;5.90;;;;;;;27.34;39.92;100766.14;104347;1283;69114;-86
2023/08/20 02:00:37;;;;;;;7.00;6.20;;;;;;;27.34;40.03;100766.61;105133;1285;69259;-86
2023/08/20 02:03:03;;;;;;;7.70;6.10;;;;;;;27.34;40.00;100769.71;104984;1283;69214;-86
2023/08/20 02:05:29;;;;;;;9.20;6.20;;;;;;;27.34;39.96;100772.82;104377;1285;69385;-86
2023/08/20 02:07:54;;;;;;;7.40;6.60;;;;;;;27.34;40.11;100768.99;104463;1288;69279;-86
2023/08/20 02:10:21;;;;;;;9.00;6.30;;;;;;;27.35;40.04;100767.07;104450;1283;69258;-86
2023/08/20 02:12:46;;;;;;;7.40;6.00;;;;;;;27.34;40.07;100766.41;104421;1285;69501;-86
2023/08/20 02:15:12;;;;;;;7.30;6.50;;;;;;;27.33;40.05;100763.64;104452;1283;69250;-87
2023/08/20 02:20:18;;;;;;;10.50;6.50;;;;;;;27.33;40.02;100762.04;104490;1288;69150;-86
2023/08/20 02:22:44;;;;;;;6.80;6.00;;;;;;;27.33;40.19;100764.58;104480;1283;69364;-85
2023/08/20 02:25:09;;;;;;;9.50;6.10;;;;;;;27.33;40.09;100764.58;104173;1291;69292;-86
2023/08/20 02:27:35;;;;;;;10.50;6.60;;;;;;;27.33;40.11;100761.02;104182;1289;69215;-85
2023/08/20 02:30:00;;;;;;;9.80;6.10;;;;;;;27.32;40.15;100763.92;104309;1297;69256;-86
2023/08/20 02:32:26;;;;;;;7.20;6.30;;;;;;;27.32;40.13;100763.36;104318;1288;69211;-86
2023/08/20 02:34:51;;;;;;;8.40;6.60;;;;;;;27.32;40.39;100768.26;104296;1287;69276;-85
2023/08/20 02:37:17;;;;;;;8.70;6.50;;;;;;;27.32;40.21;100775.71;104381;1289;69363;-86
2023/08/20 02:39:42;;;;;;;8.80;6.50;;;;;;;27.32;40.29;100783.66;104336;1287;67409;-86
2023/08/20 02:42:08;;;;;;;8.50;6.20;;;;;;;27.31;40.28;100782.33;104311;1289;69250;-86
2023/08/20 02:44:34;;;;;;;9.40;6.70;;;;;;;27.31;40.31;100783.73;104232;1286;69352;-91
2023/08/20 02:46:59;;;;;;;9.10;6.30;;;;;;;27.30;40.21;100786.84;104294;1286;69283;-86
2023/08/20 02:49:25;;;;;;;11.20;6.30;;;;;;;27.31;40.27;100788.14;104171;1286;70534;-86
2023/08/20 02:51:50;;;;;;;10.30;6.40;;;;;;;27.31;40.24;100788.39;104133;1289;69255;-86
2023/08/20 02:54:16;;;;;;;9.20;6.50;;;;;;;27.30;40.25;100790.58;104256;1288;69260;-86
2023/08/20 02:56:41;;;;;;;7.30;6.10;;;;;;;27.29;40.16;100787.59;104287;1287;69293;-87
2023/08/20 02:59:07;;;;;;;8.90;6.70;;;;;;;27.29;40.31;100786.86;104209;1289;69266;-86
2023/08/20 03:01:32;;;;;;;8.60;6.40;;;;;;;27.29;40.30;100788.83;104266;1288;69279;-86
2023/08/20 03:03:58;;;;;;;8.60;6.90;;;;;;;27.29;40.37;100790.27;104356;1286;69912;-86
2023/08/20 03:06:23;;;;;;;7.10;6.40;;;;;;;27.28;40.40;100794.02;104319;1291;67294;-86
2023/08/20 03:08:49;;;;;;;9.10;6.70;;;;;;;27.29;40.37;100795.91;104360;1286;69204;-87
2023/08/20 03:11:14;;;;;;;9.30;6.70;;;;;;;27.28;40.52;100795.98;104218;1298;69285;-86
2023/08/20 03:13:40;;;;;;;8.60;6.90;;;;;;;27.28;40.49;100798.63;104311;1286;69269;-86
2023/08/20 03:16:05;;;;;;;12.50;6.90;;;;;;;27.28;40.57;100795.63;104314;1286;69275;-86
2023/08/20 03:18:31;;;;;;;9.40;6.90;;;;;;;27.27;40.51;100795.17;104304;1289;66862;-86
2023/08/20 03:20:56;;;;;;;8.70;6.50;;;;;;;27.27;40.56;100798.98;104332;1288;70258;-86
2023/08/20 03:26:02;;;;;;;11.60;6.80;;;;;;;27.27;40.62;100804.58;104216;1285;69124;-86
2023/08/20 03:28:28;;;;;;;9.50;6.80;;;;;;;27.26;40.65;100806.67;104124;1286;69127;-85
2023/08/20 03:30:53;;;;;;;11.80;6.80;;;;;;;27.26;40.69;100807.95;104103;1290;69283;-86
2023/08/20 03:33:18;;;;;;;8.80;6.50;;;;;;;27.26;40.78;100807.91;104169;1290;69276;-86
2023/08/20 03:35:45;;;;;;;10.20;7.10;;;;;;;27.25;40.76;100807.77;104155;1288;69299;-86
2023/08/20 03:38:11;;;;;;;9.70;6.90;;;;;;;27.26;40.73;100808.33;104015;1288;69158;-86
2023/08/20 03:40:36;;;;;;;7.80;7.00;;;;;;;27.25;40.81;100810.30;104158;1288;69266;-86
2023/08/20 03:43:02;;;;;;;9.90;7.50;;;;;;;27.25;40.89;100806.23;104137;1290;69207;-86
2023/08/20 03:45:28;;;;;;;8.90;6.90;;;;;;;27.24;40.96;100807.06;104091;1288;69203;-86
2023/08/20 03:47:53;;;;;;;11.40;7.20;;;;;;;27.24;41.00;100805.45;104122;1288;69345;-86
2023/08/20 03:52:58;;;;;;;8.90;7.20;;;;;;;27.23;41.01;100806.63;104287;1284;69219;-85
2023/08/20 03:55:24;;;;;;;9.00;6.10;;;;;;;27.22;41.03;100806.27;104325;1288;69323;-86
2023/08/20 03:57:50;;;;;;;7.60;6.10;;;;;;;27.23;40.96;100801.96;104224;1285;69276;-86
2023/08/20 04:00:15;;;;;;;8.20;6.60;;;;;;;27.22;40.96;100799.46;104393;1284;69284;-86
2023/08/20 04:02:41;;;;;;;7.70;6.60;;;;;;;27.23;41.00;100797.23;104329;1289;69279;-86
2023/08/20 04:05:07;;;;;;;8.30;6.80;;;;;;;27.22;40.96;100799.83;104223;1284;69281;-86
2023/08/20 04:07:32;;;;;;;8.00;6.80;;;;;;;27.22;40.88;100796.94;104374;1285;69254;-86
2023/08/20 04:09:58;;;;;;;8.80;6.90;;;;;;;27.22;40.98;100799.42;104352;1285;69129;-86
2023/08/20 04:12:23;;;;;;;9.00;6.70;;;;;;;27.22;40.99;100798.39;104383;1284;69155;-86
2023/08/20 04:14:48;;;;;;;9.80;6.90;;;;;;;27.21;40.95;100795.66;104343;1286;69225;-86
2023/08/20 04:19:48;;;;;;;11.50;7.60;;;;;;;27.21;40.97;100794.14;104555;1283;69168;-86
2023/08/20 04:22:13;;;;;;;8.20;7.10;;;;;;;27.21;40.91;100795.31;104435;1286;69250;-86
2023/08/20 04:24:39;;;;;;;8.20;6.80;;;;;;;27.21;40.95;100794.33;104501;1285;69271;-86
2023/08/20 04:27:05;;;;;;;11.30;7.30;;;;;;;27.20;40.84;100792.84;104369;1285;67384;-87
2023/08/20 04:29:31;;;;;;;8.20;7.00;;;;;;;27.20;40.95;100799.05;104475;1288;69272;-86
2023/08/20 04:31:56;;;;;;;10.40;7.30;;;;;;;27.20;40.87;100804.92;104436;1285;69186;-86
2023/08/20 04:34:22;;;;;;;9.60;7.00;;;;;;;27.20;40.92;100799.16;104499;1285;69192;-86
2023/08/20 04:36:47;;;;;;;8.50;6.80;;;;;;;27.20;40.85;100803.86;104514;1284;69276;-86
2023/08/20 04:39:13;;;;;;;10.00;7.30;;;;;;;27.19;40.84;100799.73;104580;1285;69253;-86
2023/08/20 04:41:38;;;;;;;8.50;6.60;;;;;;;27.20;40.90;100805.00;104541;1285;69242;-87
2023/08/20 04:46:47;;;;;;;12.10;7.10;;;;;;;27.19;40.92;100804.66;106240;1284;68432;-87
2023/08/20 04:49:13;;;;;;;9.10;6.70;;;;;;;27.20;40.94;100799.36;106394;1285;67075;-87
2023/08/20 04:51:38;;;;;;;9.40;6.70;;;;;;;27.20;40.85;100797.96;106385;1285;69186;-87
2023/08/20 04:54:04;;;;;;;7.20;6.50;;;;;;;27.20;40.89;100795.98;106167;1285;69270;-86
2023/08/20 04:56:29;;;;;;;9.00;6.90;;;;;;;27.22;40.88;100793.31;105443;1285;69275;-87
2023/08/20 04:58:55;;;;;;;8.00;6.40;;;;;;;27.22;40.96;100789.07;104385;1284;69208;-86
2023/08/20 05:01:20;;;;;;;8.20;6.60;;;;;;;27.23;40.85;100787.88;104407;1284;69093;-86
2023/08/20 05:03:46;;;;;;;9.50;6.60;;;;;;;27.23;40.80;100791.39;105642;1285;67601;-87
2023/08/20 05:06:11;;;;;;;7.10;6.20;;;;;;;27.23;40.79;100789.48;106561;1288;67869;-87
2023/08/20 05:08:37;;;;;;;10.70;6.90;;;;;;;27.24;40.73;100792.70;106052;1284;69180;-87
2023/08/20 05:11:18;;;;;;;7.30;6.40;;;;;;;27.25;40.81;100797.17;104216;1284;69294;-92
2023/08/20 05:13:45;;;;;;;8.80;6.50;;;;;;;27.24;40.75;100794.40;104102;1285;73620;-86
2023/08/20 05:16:10;;;;;;;13.80;6.50;;;;;;;27.24;40.94;100794.15;104192;1288;69346;-86
2023/08/20 05:18:36;;;;;;;10.20;6.50;;;;;;;27.25;40.75;100793.81;104354;1288;69301;-86
2023/08/20 05:21:01;;;;;;;11.30;6.80;;;;;;;27.25;40.69;100799.87;104339;1285;69209;-86
2023/08/20 05:23:27;;;;;;;8.60;6.70;;;;;;;27.25;40.75;100800.84;104265;1285;69235;-86
2023/08/20 05:25:52;;;;;;;11.10;6.40;;;;;;;27.25;40.69;100803.13;105552;1285;69200;-86
2023/08/20 05:28:18;;;;;;;8.90;6.70;;;;;;;27.24;40.70;100806.80;104315;1285;69184;-86
2023/08/20 05:30:43;;;;;;;8.50;6.60;;;;;;;27.25;40.78;100809.38;104212;1286;69183;-86
2023/08/20 05:33:09;;;;;;;9.60;6.70;;;;;;;27.25;40.79;100808.91;104273;1286;69213;-86
2023/08/20 05:35:35;;;;;;;7.30;6.50;;;;;;;27.25;40.75;100816.30;104293;1284;69263;-86
2023/08/20 05:38:09;;;;;;;8.50;6.60;;;;;;;27.25;40.80;100817.60;104176;1286;69132;-92
2023/08/20 05:40:34;;;;;;;10.30;6.60;;;;;;;27.24;40.74;100816.27;104155;1286;69276;-86
2023/08/20 05:43:00;;;;;;;9.00;6.70;;;;;;;27.24;40.67;100821.69;104204;1285;69372;-86
2023/08/20 05:45:25;;;;;;;10.10;6.60;;;;;;;27.24;40.77;100823.39;104343;1285;69250;-86
2023/08/20 05:47:51;;;;;;;10.00;6.80;;;;;;;27.25;40.90;100821.42;104307;1288;69259;-86
2023/08/20 05:50:16;;;;;;;8.40;6.90;;;;;;;27.25;40.76;100817.34;104216;1286;69196;-86
2023/08/20 05:52:42;;;;;;;9.40;6.70;;;;;;;27.24;40.81;100817.45;104188;1285;69271;-86
2023/08/20 05:55:08;;;;;;;9.10;6.40;;;;;;;27.25;40.80;100819.88;104195;1288;69276;-86
2023/08/20 05:57:36;;;;;;;9.00;6.90;;;;;;;27.25;40.72;100824.56;104295;1287;69304;-86
2023/08/20 06:00:04;;;;;;;8.60;6.50;;;;;;;27.25;40.76;100825.85;104192;1286;69266;-86
2023/08/20 06:02:29;;;;;;;8.40;6.70;;;;;;;27.24;40.73;100825.40;104293;1290;69101;-86
2023/08/20 06:05:00;;;;;;;8.50;6.60;;;;;;;27.26;40.78;100826.83;104296;1285;69275;-92
2023/08/20 06:07:26;;;;;;;8.20;6.70;;;;;;;27.26;40.79;100832.19;104200;1285;73557;-86
2023/08/20 06:09:51;;;;;;;9.10;6.40;;;;;;;27.26;40.83;100829.28;104278;1285;69276;-87
2023/08/20 06:12:17;;;;;;;9.20;6.50;;;;;;;27.27;40.75;100829.89;104351;1286;69215;-86
2023/08/20 06:14:42;;;;;;;9.20;6.70;;;;;;;27.27;40.83;100834.08;104359;1288;69259;-87
2023/08/20 06:17:08;;;;;;;7.20;6.40;;;;;;;27.27;40.80;100837.38;104378;1288;69248;-86
2023/08/20 06:19:34;;;;;;;7.70;6.60;;;;;;;27.28;40.77;100836.89;103940;1288;69207;-86
2023/08/20 06:21:59;;;;;;;9.20;6.80;;;;;;;27.29;40.76;100836.06;104179;1288;69216;-86
2023/08/20 06:24:25;;;;;;;12.40;6.90;;;;;;;27.29;40.76;100835.70;104211;1286;69247;-86
2023/08/20 06:26:51;;;;;;;7.30;6.00;;;;;;;27.30;40.70;100837.33;104210;1284;69335;-86
2023/08/20 06:29:16;;;;;;;8.40;6.60;;;;;;;27.30;40.70;100837.33;104219;1290;69305;-86
2023/08/20 06:34:24;;;;;;;8.90;6.40;;;;;;;27.32;40.70;100839.20;104273;1288;69146;-86
2023/08/20 06:36:50;;;;;;;7.20;6.20;;;;;;;27.32;40.73;100838.42;104256;1287;69277;-86
2023/08/20 06:39:15;;;;;;;8.40;6.40;;;;;;;27.33;40.67;100839.07;104280;1285;69227;-86
2023/08/20 06:41:41;;;;;;;8.20;6.70;;;;;;;27.34;40.53;100841.58;104375;1286;69228;-86
2023/08/20 06:44:07;;;;;;;6.70;6.10;;;;;;;27.34;40.61;100843.07;104261;1286;69331;-86
2023/08/20 06:46:32;;;;;;;8.80;6.40;;;;;;;27.36;40.55;100833.95;104112;1288;69267;-86
2023/08/20 06:48:58;;;;;;;7.30;6.00;;;;;;;27.36;40.46;100836.42;104305;1285;69325;-86
2023/08/20 06:51:25;;;;;;;10.10;6.90;;;;;;;27.37;40.45;100839.30;104152;1285;69267;-86
2023/08/20 06:53:50;;;;;;;9.30;6.70;;;;;;;27.37;40.47;100835.48;104094;1288;69210;-86
2023/08/20 06:56:16;;;;;;;8.00;6.70;;;;;;;27.38;40.38;100835.04;104129;1290;69269;-85
2023/08/20 06:58:42;;;;;;;7.90;6.60;;;;;;;27.38;40.37;100839.02;103971;1290;69288;-86
2023/08/20 07:01:08;;;;;;;7.10;6.40;;;;;;;27.39;40.32;100836.52;104221;1288;69266;-86
2023/08/20 07:03:34;;;;;;;8.30;6.60;;;;;;;27.40;40.37;100836.49;104140;1285;69193;-86
2023/08/20 07:06:00;;;;;;;10.00;6.70;;;;;;;27.40;40.42;100836.66;104172;1288;69196;-86
2023/08/20 07:08:25;;;;;;;8.50;6.50;;;;;;;27.41;40.28;100835.91;103994;1286;69274;-86
2023/08/20 07:10:51;;;;;;;7.90;6.90;;;;;;;27.42;40.28;100832.59;104090;1288;69153;-86
2023/08/20 07:13:16;;;;;;;7.20;6.50;;;;;;;27.42;40.26;100834.23;104166;1288;69326;-86
2023/08/20 07:15:42;;;;;;;8.80;6.30;;;;;;;27.43;40.19;100832.86;104007;1288;69310;-85
2023/08/20 07:18:07;;;;;;;7.10;6.40;;;;;;;27.43;40.19;100831.48;104190;1287;69372;-86
2023/08/20 07:20:34;;;;;;;8.00;6.50;;;;;;;27.44;40.09;100838.39;104251;1288;69158;-86
2023/08/20 07:22:59;;;;;;;7.40;6.60;;;;;;;27.45;40.15;100837.22;104201;1287;69226;-86
2023/08/20 07:25:25;;;;;;;6.60;6.00;;;;;;;27.46;40.13;100838.86;104131;1286;67459;-86
2023/08/20 07:27:50;;;;;;;7.20;6.10;;;;;;;27.47;40.08;100837.35;103960;1285;69136;-85
2023/08/20 07:30:16;;;;;;;7.40;6.60;;;;;;;27.47;40.10;100831.45;104151;1290;69245;-86
2023/08/20 07:32:42;;;;;;;7.20;6.40;;;;;;;27.48;40.04;100826.27;104270;1286;69247;-86
2023/08/20 07:35:08;;;;;;;7.10;6.30;;;;;;;27.48;40.04;100824.77;104165;1288;69682;-86
2023/08/20 07:37:38;;;;;;;7.40;6.70;;;;;;;27.49;40.08;100825.11;104131;1286;69202;-91
2023/08/20 07:40:04;;;;;;;9.10;6.30;;;;;;;27.50;40.07;100824.48;104192;1289;69097;-86
2023/08/20 07:42:29;;;;;;;7.30;6.20;;;;;;;27.50;39.99;100820.54;104187;1286;69185;-86
2023/08/20 07:44:55;;;;;;;8.60;6.40;;;;;;;27.51;39.93;100816.23;104175;1287;69254;-86
2023/08/20 07:47:20;;;;;;;6.60;5.90;;;;;;;27.51;40.01;100813.70;104193;1290;69258;-86
2023/08/20 07:49:46;;;;;;;7.40;6.60;;;;;;;27.52;39.93;100812.18;104288;1286;70236;-87
2023/08/20 07:52:11;;;;;;;7.30;6.60;;;;;;;27.53;39.92;100811.60;104181;1287;73794;-86
2023/08/20 07:54:37;;;;;;;7.10;6.40;;;;;;;27.54;39.91;100814.11;104189;1287;69241;-86
2023/08/20 07:57:02;;;;;;;7.10;6.30;;;;;;;27.54;39.94;100805.93;104227;1288;69284;-86
2023/08/20 07:59:28;;;;;;;7.50;6.30;;;;;;;27.54;39.84;100809.81;104242;1288;69392;-87
2023/08/20 08:01:53;;;;;;;6.80;6.10;;;;;;;27.56;39.88;100805.39;104217;1289;69186;-87
2023/08/20 08:04:19;;;;;;;6.80;6.20;;;;;;;27.56;39.79;100803.56;104162;1287;69408;-87
2023/08/20 08:06:44;;;;;;;10.20;6.10;;;;;;;27.57;39.75;100799.66;104246;1286;69171;-87
2023/08/20 08:09:21;;;;;;;8.00;6.20;;;;;;;27.58;39.77;100796.34;104326;1288;67328;-87
2023/08/20 08:11:47;;;;;;;7.80;6.40;;;;;;;27.58;39.75;100799.64;104260;1287;69154;-87
2023/08/20 08:14:13;;;;;;;8.50;6.50;;;;;;;27.59;39.63;100801.17;104088;1287;69253;-87
2023/08/20 08:16:38;;;;;;;7.20;6.40;;;;;;;27.59;39.76;100794.92;104267;1287;67321;-87
2023/08/20 08:19:04;;;;;;;7.40;6.40;;;;;;;27.60;39.65;100796.98;104074;1287;69124;-86
2023/08/20 08:21:29;;;;;;;7.90;6.10;;;;;;;27.61;39.68;100791.95;104179;1286;66603;-86
2023/08/20 08:23:55;;;;;;;6.60;6.00;;;;;;;27.63;39.59;100790.41;104157;1290;80166;-87
2023/08/20 08:26:20;;;;;;;6.80;6.10;;;;;;;27.62;39.58;100790.26;104243;1290;69813;-86
2023/08/20 08:28:46;;;;;;;7.10;5.90;;;;;;;27.64;39.64;100789.09;104271;1288;69260;-87
2023/08/20 08:31:12;;;;;;;6.60;5.90;;;;;;;27.64;39.50;100785.72;104192;1286;69524;-87
2023/08/20 08:33:37;;;;;;;6.70;6.00;;;;;;;27.65;39.57;100787.10;104240;1288;69254;-86
2023/08/20 08:36:03;;;;;;;6.90;6.20;;;;;;;27.66;39.59;100785.16;104120;1286;70412;-86
2023/08/20 08:38:29;;;;;;;7.00;6.30;;;;;;;27.66;39.50;100786.20;104087;1288;69180;-87
2023/08/20 08:40:57;;;;;;;7.20;6.50;;;;;;;27.66;39.48;100787.13;104075;1288;69282;-86
2023/08/20 08:43:27;;;;;;;7.10;6.30;;;;;;;27.67;39.47;100787.73;103965;1286;69169;-92
2023/08/20 08:45:53;;;;;;;6.80;5.90;;;;;;;27.67;39.42;100780.10;104090;1287;73546;-86
2023/08/20 08:48:19;;;;;;;6.80;6.10;;;;;;;27.68;39.46;100783.00;103910;1289;69292;-87
2023/08/20 08:50:45;;;;;;;6.30;5.70;;;;;;;27.69;39.42;100780.23;104065;1286;69382;-86
2023/08/20 08:53:10;;;;;;;6.90;6.20;;;;;;;27.69;39.43;100778.60;105115;1287;67021;-87
2023/08/20 08:55:37;;;;;;;6.70;5.90;;;;;;;27.70;39.37;100775.73;104079;1286;69321;-87
2023/08/20 08:58:03;;;;;;;8.40;6.60;;;;;;;27.71;39.52;100774.80;104083;1286;69206;-86
2023/08/20 09:00:31;;;;;;;6.70;6.00;;;;;;;27.71;39.41;100769.52;104232;1287;69274;-86
2023/08/20 09:02:56;;;;;;;8.80;6.40;;;;;;;27.72;39.35;100769.04;104186;1290;69260;-87
2023/08/20 09:05:22;;;;;;;6.60;6.00;;;;;;;27.73;39.48;100764.05;104187;1289;69337;-86
2023/08/20 09:07:47;;;;;;;7.60;6.10;;;;;;;27.73;39.45;100761.55;104163;1288;69252;-87
2023/08/20 09:10:22;;;;;;;7.50;6.00;;;;;;;27.74;39.41;100762.88;104011;1288;69286;-92
2023/08/20 09:12:48;;;;;;;6.80;6.20;;;;;;;27.74;39.43;100758.64;103940;1288;69342;-86
2023/08/20 09:15:13;;;;;;;7.10;6.30;;;;;;;27.74;39.39;100758.83;104221;1286;69200;-86
2023/08/20 09:17:46;;;;;;;6.60;6.00;;;;;;;27.76;39.32;100755.36;104235;1288;69609;-87
2023/08/20 09:20:12;;;;;;;6.80;6.10;;;;;;;27.76;39.39;100759.08;104192;1288;73659;-87
2023/08/20 09:22:37;;;;;;;6.70;6.10;;;;;;;27.77;39.39;100755.33;104185;1287;69656;-87
2023/08/20 09:27:47;;;;;;;7.80;6.00;;;;;;;27.78;39.47;100756.66;104241;1285;69145;-86
2023/08/20 09:30:17;;;;;;;6.70;6.10;;;;;;;27.78;39.34;100752.58;104091;1292;69302;-86
2023/08/20 09:32:43;;;;;;;6.50;5.80;;;;;;;27.79;39.31;100749.70;104364;1287;74473;-86
2023/08/20 09:35:17;;;;;;;9.80;6.30;;;;;;;27.79;39.29;100751.15;104286;1286;69278;-86
2023/08/20 09:37:43;;;;;;;7.00;5.60;;;;;;;27.80;39.21;100745.34;104364;1288;69255;-87
2023/08/20 09:40:17;;;;;;;6.60;6.00;;;;;;;27.80;39.36;100745.55;104168;1287;69232;-92
2023/08/20 09:42:42;;;;;;;6.70;6.10;;;;;;;27.81;39.19;100741.95;104205;1286;68270;-87
2023/08/20 09:45:08;;;;;;;6.90;6.10;;;;;;;27.82;39.16;100739.77;104178;1289;69266;-87
2023/08/20 09:47:35;;;;;;;6.80;6.10;;;;;;;27.82;39.14;100738.35;104227;1290;67516;-86
2023/08/20 09:50:01;;;;;;;6.70;5.90;;;;;;;27.83;39.09;100740.14;104093;1288;69032;-87
2023/08/20 09:52:39;;;;;;;6.80;6.10;;;;;;;27.83;39.13;100736.46;104016;1287;69307;-86
2023/08/20 09:55:19;;;;;;;7.20;6.00;;;;;;;27.84;39.17;100734.27;104260;1286;69179;-92
2023/08/20 09:57:44;;;;;;;6.50;5.80;;;;;;;27.84;39.15;100732.15;104045;1288;74304;-87
2023/08/20 10:00:11;;;;;;;8.70;5.90;;;;;;;27.84;39.22;100732.05;103970;1293;70377;-87
2023/08/20 10:02:38;;;;;;;6.40;5.70;;;;;;;27.85;39.14;100728.56;104357;1288;69306;-87
2023/08/20 10:05:07;;;;;;;6.20;5.70;;;;;;;27.85;39.09;100734.25;103958;1286;69295;-87
2023/08/20 10:07:33;;;;;;;6.30;5.50;;;;;;;27.86;38.98;100738.62;104327;1288;69135;-87
2023/08/20 10:12:39;;;;;;;6.30;5.70;;;;;;;27.86;39.02;100731.01;104518;1285;69207;-86
2023/08/20 10:15:07;;;;;;;6.30;5.70;;;;;;;27.87;38.98;100733.36;104398;1286;69494;-86
2023/08/20 10:17:33;;;;;;;6.50;5.90;;;;;;;27.88;39.08;100731.44;104349;1289;69189;-86
2023/08/20 10:19:59;;;;;;;6.60;5.90;;;;;;;27.89;39.01;100733.22;104437;1286;69680;-86
2023/08/20 10:22:41;;;;;;;6.30;5.70;;;;;;;27.89;38.95;100727.69;104419;1285;69092;-87
2023/08/20 10:25:07;;;;;;;6.30;5.70;;;;;;;27.90;38.90;100726.26;104350;1289;69170;-87
2023/08/20 10:27:35;;;;;;;6.50;5.80;;;;;;;27.91;38.94;100727.63;104168;1291;69267;-86
2023/08/20 10:30:00;;;;;;;6.30;5.70;;;;;;;27.91;38.89;100727.11;104364;1289;69318;-86
2023/08/20 10:32:46;;;;;;;6.40;5.80;;;;;;;27.93;38.84;100725.36;104378;1285;69349;-86
2023/08/20 10:35:12;;;;;;;6.60;5.70;;;;;;;27.93;38.89;100719.56;104461;1288;73826;-86
2023/08/20 10:37:39;;;;;;;6.60;6.00;;;;;;;27.93;38.89;100716.41;104410;1289;69250;-86
2023/08/20 10:40:06;;;;;;;8.30;5.60;;;;;;;27.93;38.89;100721.98;104447;1286;69590;-87
2023/08/20 10:42:32;;;;;;;6.20;5.60;;;;;;;27.94;38.80;100718.31;104321;1288;69168;-86
2023/08/20 10:45:00;;;;;;;6.40;5.80;;;;;;;27.93;38.88;100713.34;104416;1285;69252;-86
2023/08/20 10:47:44;;;;;;;6.90;6.20;;;;;;;27.94;38.93;100707.42;104558;1285;73521;-86
2023/08/20 10:50:11;;;;;;;6.40;5.80;;;;;;;27.94;38.79;100703.29;104731;1285;68925;-86
2023/08/20 10:52:49;;;;;;;6.10;5.50;;;;;;;27.94;38.72;100698.79;105927;1286;67008;-87
2023/08/20 10:55:15;;;;;;;6.30;5.70;;;;;;;27.95;38.75;100697.73;106223;1285;66868;-86
2023/08/20 10:57:41;;;;;;;5.90;5.40;;;;;;;27.96;38.76;100702.21;105296;1287;69275;-85
2023/08/20 11:00:13;;;;;;;6.30;5.70;;;;;;;27.96;38.81;100700.70;106285;1288;69107;-86
2023/08/20 11:02:40;;;;;;;6.60;5.90;;;;;;;27.97;38.82;100689.83;106612;1285;69044;-85
2023/08/20 11:05:16;;;;;;;6.50;5.90;;;;;;;27.98;38.67;100687.33;106194;1284;67051;-86
2023/08/20 11:07:42;;;;;;;9.20;5.80;;;;;;;27.98;38.83;100683.84;104818;1285;69269;-85
2023/08/20 11:10:10;;;;;;;6.50;5.60;;;;;;;28.00;38.75;100683.96;104475;1289;69169;-85
2023/08/20 11:12:38;;;;;;;8.10;5.90;;;;;;;28.01;38.65;100686.79;106101;1285;74689;-85
2023/08/20 11:15:04;;;;;;;6.00;5.50;;;;;;;28.02;38.63;100684.74;104789;1286;68292;-85
2023/08/20 11:17:29;;;;;;;6.70;5.70;;;;;;;28.02;38.55;100681.27;104490;1285;69221;-86
2023/08/20 11:19:55;;;;;;;6.70;5.60;;;;;;;28.03;38.40;100676.60;104513;1285;69273;-86
2023/08/20 11:22:21;;;;;;;6.80;5.70;;;;;;;28.04;38.46;100678.42;104613;1286;68325;-86
2023/08/20 11:24:56;;;;;;;6.40;5.50;;;;;;;28.04;38.34;100676.71;104624;1285;69265;-92
2023/08/20 11:27:27;;;;;;;6.70;5.00;;;;;;;28.04;38.24;100664.77;104757;1287;69122;-87
2023/08/20 11:29:53;;;;;;;6.60;5.80;;;;;;;28.05;38.12;100663.70;104434;1288;69147;-87
2023/08/20 11:32:19;;;;;;;7.40;4.90;;;;;;;28.05;38.04;100658.62;104446;1286;69209;-87
2023/08/20 11:34:44;;;;;;;6.00;5.50;;;;;;;28.05;37.82;100652.52;104366;1290;69266;-87
2023/08/20 11:37:10;;;;;;;5.80;5.20;;;;;;;28.05;37.82;100651.55;104427;1285;69698;-87
2023/08/20 11:42:19;;;;;;;6.10;5.50;;;;;;;28.06;37.77;100643.73;104349;1285;69185;-87